sensor_id;sensor_type;location;lat;lon;timestamp;temperature;humidity
3190;DHT22;1606;51.946;10.558;2023-11-19T00:01:57;11.10;99.90
3190;DHT22;1606;51.946;10.558;2023-11-19T00:04:25;11.00;99.90
3190;DHT22;1606;51.946;10.558;2023-11-19T00:06:53;11.10;99.90
3190;DHT22;1606;51.946;10.558;2023-11-19T00:09:22;11.00;99.90
3190;DHT22;1606;51.946;10.558;2023-11-19T00:11:52;11.00;99.90
3190;DHT22;1606;51.946;10.558;2023-11-19T00:14:20;11.00;99.90
3190;DHT22;1606;51.946;10.558;2023-11-19T00:16:48;11.10;99.90
3190;DHT22;1606;51.946;10.558;2023-11-19T00:19:17;11.00;99.90
3190;DHT22;1606;51.946;10.558;2023-11-19T00:21:46;10.90;99.90
3190;DHT22;1606;51.946;10.558;2023-11-19T00:24:14;10.90;99.90
3190;DHT22;1606;51.946;10.558;2023-11-19T00:26:44;10.90;99.90
3190;DHT22;1606;51.946;10.558;2023-11-19T00:29:12;11.00;99.90
3190;DHT22;1606;51.946;10.558;2023-11-19T00:31:40;10.90;99.90
3190;DHT22;1606;51.946;10.558;2023-11-19T00:34:08;11.00;99.90
3190;DHT22;1606;51.946;10.558;2023-11-19T00:36:37;11.10;99.90
3190;DHT22;1606;51.946;10.558;2023-11-19T00:39:05;11.00;99.90
3190;DHT22;1606;51.946;10.558;2023-11-19T00:41:33;11.00;99.90
3190;DHT22;1606;51.946;10.558;2023-11-19T00:44:03;11.00;99.90
3190;DHT22;1606;51.946;10.558;2023-11-19T00:46:31;11.10;99.90
3190;DHT22;1606;51.946;10.558;2023-11-19T00:48:59;11.00;99.90
3190;DHT22;1606;51.946;10.558;2023-11-19T00:51:28;11.10;99.90
3190;DHT22;1606;51.946;10.558;2023-11-19T00:53:58;11.00;99.90
3190;DHT22;1606;51.946;10.558;2023-11-19T00:56:27;10.80;99.90
3190;DHT22;1606;51.946;10.558;2023-11-19T00:58:56;11.00;99.90
3190;DHT22;1606;51.946;10.558;2023-11-19T01:01:25;11.00;99.90
3190;DHT22;1606;51.946;10.558;2023-11-19T01:03:53;11.00;99.90
3190;DHT22;1606;51.946;10.558;2023-11-19T01:06:27;11.10;99.90
3190;DHT22;1606;51.946;10.558;2023-11-19T01:08:56;11.10;99.90
3190;DHT22;1606;51.946;10.558;2023-11-19T01:11:25;11.10;99.90
3190;DHT22;1606;51.946;10.558;2023-11-19T01:13:53;11.00;99.90
3190;DHT22;1606;51.946;10.558;2023-11-19T01:16:21;10.90;99.90
3190;DHT22;1606;51.946;10.558;2023-11-19T01:18:51;11.00;99.90
3190;DHT22;1606;51.946;10.558;2023-11-19T01:21:37;11.20;99.90
3190;DHT22;1606;51.946;10.558;2023-11-19T01:24:06;10.60;99.90
3190;DHT22;1606;51.946;10.558;2023-11-19T01:26:36;10.50;99.90
3190;DHT22;1606;51.946;10.558;2023-11-19T01:29:04;10.60;99.90
3190;DHT22;1606;51.946;10.558;2023-11-19T01:31:33;10.50;99.90
3190;DHT22;1606;51.946;10.558;2023-11-19T01:34:02;10.60;99.90
3190;DHT22;1606;51.946;10.558;2023-11-19T01:36:30;10.60;99.90
3190;DHT22;1606;51.946;10.558;2023-11-19T01:38:58;10.50;99.90
3190;DHT22;1606;51.946;10.558;2023-11-19T01:41:26;10.60;99.90
3190;DHT22;1606;51.946;10.558;2023-11-19T01:43:54;10.60;99.90
3190;DHT22;1606;51.946;10.558;2023-11-19T01:46:21;10.70;99.90
3190;DHT22;1606;51.946;10.558;2023-11-19T01:48:49;10.70;99.90
3190;DHT22;1606;51.946;10.558;2023-11-19T01:51:19;10.70;99.90
3190;DHT22;1606;51.946;10.558;2023-11-19T01:53:47;10.80;99.90
3190;DHT22;1606;51.946;10.558;2023-11-19T01:56:17;10.70;99.90
3190;DHT22;1606;51.946;10.558;2023-11-19T01:58:45;10.80;99.90
3190;DHT22;1606;51.946;10.558;2023-11-19T02:01:15;10.70;99.90
3190;DHT22;1606;51.946;10.558;2023-11-19T02:03:43;10.70;99.90
3190;DHT22;1606;51.946;10.558;2023-11-19T02:06:11;10.70;99.90
3190;DHT22;1606;51.946;10.558;2023-11-19T02:08:41;10.70;99.90
3190;DHT22;1606;51.946;10.558;2023-11-19T02:11:12;10.70;99.90
3190;DHT22;1606;51.946;10.558;2023-11-19T02:13:41;10.70;99.90
3190;DHT22;1606;51.946;10.558;2023-11-19T02:16:10;10.60;99.90
3190;DHT22;1606;51.946;10.558;2023-11-19T02:18:38;10.80;99.90
3190;DHT22;1606;51.946;10.558;2023-11-19T02:21:06;10.80;99.90
3190;DHT22;1606;51.946;10.558;2023-11-19T02:23:37;10.90;99.90
3190;DHT22;1606;51.946;10.558;2023-11-19T02:26:12;11.00;99.90
3190;DHT22;1606;51.946;10.558;2023-11-19T02:28:43;11.00;99.90
3190;DHT22;1606;51.946;10.558;2023-11-19T02:31:13;11.20;99.90
3190;DHT22;1606;51.946;10.558;2023-11-19T02:33:41;11.10;99.90
3190;DHT22;1606;51.946;10.558;2023-11-19T02:36:09;11.10;99.90
3190;DHT22;1606;51.946;10.558;2023-11-19T02:38:37;11.10;99.90
3190;DHT22;1606;51.946;10.558;2023-11-19T02:41:06;11.20;99.90
3190;DHT22;1606;51.946;10.558;2023-11-19T02:43:36;11.40;99.90
3190;DHT22;1606;51.946;10.558;2023-11-19T02:46:07;11.30;99.90
3190;DHT22;1606;51.946;10.558;2023-11-19T02:48:38;11.30;99.90
3190;DHT22;1606;51.946;10.558;2023-11-19T02:51:07;11.40;99.90
3190;DHT22;1606;51.946;10.558;2023-11-19T02:53:37;11.30;99.90
3190;DHT22;1606;51.946;10.558;2023-11-19T02:56:07;11.50;99.90
3190;DHT22;1606;51.946;10.558;2023-11-19T02:58:43;11.50;99.90
3190;DHT22;1606;51.946;10.558;2023-11-19T03:01:13;11.40;99.90
3190;DHT22;1606;51.946;10.558;2023-11-19T03:03:50;11.40;99.90
3190;DHT22;1606;51.946;10.558;2023-11-19T03:06:21;11.60;99.90
3190;DHT22;1606;51.946;10.558;2023-11-19T03:08:49;11.70;99.90
3190;DHT22;1606;51.946;10.558;2023-11-19T03:11:17;11.70;99.90
3190;DHT22;1606;51.946;10.558;2023-11-19T03:13:45;11.70;99.90
3190;DHT22;1606;51.946;10.558;2023-11-19T03:16:16;11.90;99.90
3190;DHT22;1606;51.946;10.558;2023-11-19T03:18:44;11.60;99.90
3190;DHT22;1606;51.946;10.558;2023-11-19T03:21:12;11.50;99.90
3190;DHT22;1606;51.946;10.558;2023-11-19T03:23:40;11.60;99.90
3190;DHT22;1606;51.946;10.558;2023-11-19T03:26:10;11.80;99.90
3190;DHT22;1606;51.946;10.558;2023-11-19T03:28:38;11.80;99.90
3190;DHT22;1606;51.946;10.558;2023-11-19T03:31:06;11.90;99.90
3190;DHT22;1606;51.946;10.558;2023-11-19T03:33:37;11.80;99.90
3190;DHT22;1606;51.946;10.558;2023-11-19T03:36:06;11.90;99.90
3190;DHT22;1606;51.946;10.558;2023-11-19T03:38:34;11.80;99.90
3190;DHT22;1606;51.946;10.558;2023-11-19T03:41:10;11.70;99.90
3190;DHT22;1606;51.946;10.558;2023-11-19T03:43:38;11.70;99.90
3190;DHT22;1606;51.946;10.558;2023-11-19T03:46:16;11.80;99.90
3190;DHT22;1606;51.946;10.558;2023-11-19T03:48:46;11.80;99.90
3190;DHT22;1606;51.946;10.558;2023-11-19T03:51:14;11.70;99.90
3190;DHT22;1606;51.946;10.558;2023-11-19T03:53:42;11.70;99.90
3190;DHT22;1606;51.946;10.558;2023-11-19T03:56:11;11.80;99.90
3190;DHT22;1606;51.946;10.558;2023-11-19T03:58:39;11.90;99.90
3190;DHT22;1606;51.946;10.558;2023-11-19T04:01:11;12.10;99.90
3190;DHT22;1606;51.946;10.558;2023-11-19T04:03:40;12.30;99.90
3190;DHT22;1606;51.946;10.558;2023-11-19T04:06:12;12.30;99.90
3190;DHT22;1606;51.946;10.558;2023-11-19T04:08:41;12.20;99.90
3190;DHT22;1606;51.946;10.558;2023-11-19T04:11:09;12.10;99.90
3190;DHT22;1606;51.946;10.558;2023-11-19T04:13:37;12.30;99.90
3190;DHT22;1606;51.946;10.558;2023-11-19T04:16:05;12.30;99.90
3190;DHT22;1606;51.946;10.558;2023-11-19T04:18:33;12.20;99.90
3190;DHT22;1606;51.946;10.558;2023-11-19T04:21:02;12.40;99.90
3190;DHT22;1606;51.946;10.558;2023-11-19T04:23:34;12.50;99.90
3190;DHT22;1606;51.946;10.558;2023-11-19T04:26:02;12.30;99.90
3190;DHT22;1606;51.946;10.558;2023-11-19T04:28:33;12.20;99.90
3190;DHT22;1606;51.946;10.558;2023-11-19T04:31:01;12.10;99.90
3190;DHT22;1606;51.946;10.558;2023-11-19T04:33:30;12.20;99.90
3190;DHT22;1606;51.946;10.558;2023-11-19T04:35:58;12.40;99.90
3190;DHT22;1606;51.946;10.558;2023-11-19T04:38:26;12.30;99.90
3190;DHT22;1606;51.946;10.558;2023-11-19T04:40:56;12.30;99.90
3190;DHT22;1606;51.946;10.558;2023-11-19T04:43:24;12.40;99.90
3190;DHT22;1606;51.946;10.558;2023-11-19T04:45:52;12.50;99.90
3190;DHT22;1606;51.946;10.558;2023-11-19T04:48:20;12.60;99.90
3190;DHT22;1606;51.946;10.558;2023-11-19T04:50:48;12.70;99.90
3190;DHT22;1606;51.946;10.558;2023-11-19T04:53:17;12.60;99.90
3190;DHT22;1606;51.946;10.558;2023-11-19T04:55:45;12.60;99.90
3190;DHT22;1606;51.946;10.558;2023-11-19T04:58:15;12.70;99.90
3190;DHT22;1606;51.946;10.558;2023-11-19T05:00:44;12.60;99.90
3190;DHT22;1606;51.946;10.558;2023-11-19T05:03:14;12.50;99.90
3190;DHT22;1606;51.946;10.558;2023-11-19T05:05:42;12.60;99.90
3190;DHT22;1606;51.946;10.558;2023-11-19T05:08:10;12.60;99.90
3190;DHT22;1606;51.946;10.558;2023-11-19T05:10:38;12.60;99.90
3190;DHT22;1606;51.946;10.558;2023-11-19T05:13:08;12.50;99.90
3190;DHT22;1606;51.946;10.558;2023-11-19T05:15:37;12.60;99.90
3190;DHT22;1606;51.946;10.558;2023-11-19T05:18:05;12.70;99.90
3190;DHT22;1606;51.946;10.558;2023-11-19T05:20:33;12.90;99.90
3190;DHT22;1606;51.946;10.558;2023-11-19T05:23:00;12.80;99.90
3190;DHT22;1606;51.946;10.558;2023-11-19T05:25:29;12.80;99.90
3190;DHT22;1606;51.946;10.558;2023-11-19T05:27:57;12.80;99.90
3190;DHT22;1606;51.946;10.558;2023-11-19T05:30:25;12.80;99.90
3190;DHT22;1606;51.946;10.558;2023-11-19T05:32:55;12.90;99.90
3190;DHT22;1606;51.946;10.558;2023-11-19T05:35:23;12.90;99.90
3190;DHT22;1606;51.946;10.558;2023-11-19T05:37:51;12.90;99.90
3190;DHT22;1606;51.946;10.558;2023-11-19T05:40:19;12.90;99.90
3190;DHT22;1606;51.946;10.558;2023-11-19T05:42:47;12.70;99.90
3190;DHT22;1606;51.946;10.558;2023-11-19T05:45:15;12.80;99.90
3190;DHT22;1606;51.946;10.558;2023-11-19T05:47:43;13.00;99.90
3190;DHT22;1606;51.946;10.558;2023-11-19T05:50:13;13.00;99.90
3190;DHT22;1606;51.946;10.558;2023-11-19T05:52:41;13.10;99.90
3190;DHT22;1606;51.946;10.558;2023-11-19T05:55:09;13.10;99.90
3190;DHT22;1606;51.946;10.558;2023-11-19T05:57:38;13.10;99.90
3190;DHT22;1606;51.946;10.558;2023-11-19T06:00:10;13.10;99.90
3190;DHT22;1606;51.946;10.558;2023-11-19T06:02:39;13.20;99.90
3190;DHT22;1606;51.946;10.558;2023-11-19T06:05:08;13.20;99.90
3190;DHT22;1606;51.946;10.558;2023-11-19T06:07:37;13.20;99.90
3190;DHT22;1606;51.946;10.558;2023-11-19T06:10:06;13.30;99.90
3190;DHT22;1606;51.946;10.558;2023-11-19T06:12:36;13.10;99.90
3190;DHT22;1606;51.946;10.558;2023-11-19T06:15:08;13.00;99.90
3190;DHT22;1606;51.946;10.558;2023-11-19T06:17:36;13.10;99.90
3190;DHT22;1606;51.946;10.558;2023-11-19T06:20:05;13.10;99.90
3190;DHT22;1606;51.946;10.558;2023-11-19T06:22:34;13.20;99.90
3190;DHT22;1606;51.946;10.558;2023-11-19T06:25:05;13.20;99.90
3190;DHT22;1606;51.946;10.558;2023-11-19T06:27:34;13.20;99.90
3190;DHT22;1606;51.946;10.558;2023-11-19T06:30:03;13.30;99.90
3190;DHT22;1606;51.946;10.558;2023-11-19T06:32:31;13.20;99.90
3190;DHT22;1606;51.946;10.558;2023-11-19T06:34:59;13.00;99.90
3190;DHT22;1606;51.946;10.558;2023-11-19T06:37:27;13.10;99.90
3190;DHT22;1606;51.946;10.558;2023-11-19T06:39:55;13.20;99.90
3190;DHT22;1606;51.946;10.558;2023-11-19T06:42:24;13.20;99.90
3190;DHT22;1606;51.946;10.558;2023-11-19T06:44:52;13.30;99.90
3190;DHT22;1606;51.946;10.558;2023-11-19T06:47:21;13.20;99.90
3190;DHT22;1606;51.946;10.558;2023-11-19T06:49:49;13.30;99.90
3190;DHT22;1606;51.946;10.558;2023-11-19T06:52:17;13.30;99.90
3190;DHT22;1606;51.946;10.558;2023-11-19T06:54:45;13.00;99.90
3190;DHT22;1606;51.946;10.558;2023-11-19T06:57:14;13.00;99.90
3190;DHT22;1606;51.946;10.558;2023-11-19T06:59:43;13.00;99.90
3190;DHT22;1606;51.946;10.558;2023-11-19T07:02:11;13.20;99.90
3190;DHT22;1606;51.946;10.558;2023-11-19T07:04:40;13.20;99.90
3190;DHT22;1606;51.946;10.558;2023-11-19T07:07:08;13.20;99.90
3190;DHT22;1606;51.946;10.558;2023-11-19T07:09:36;13.20;99.90
3190;DHT22;1606;51.946;10.558;2023-11-19T07:12:07;13.30;99.90
3190;DHT22;1606;51.946;10.558;2023-11-19T07:14:35;13.20;99.90
3190;DHT22;1606;51.946;10.558;2023-11-19T07:17:05;13.40;99.90
3190;DHT22;1606;51.946;10.558;2023-11-19T07:19:33;13.30;99.90
3190;DHT22;1606;51.946;10.558;2023-11-19T07:22:02;13.30;99.90
3190;DHT22;1606;51.946;10.558;2023-11-19T07:24:30;13.60;99.90
3190;DHT22;1606;51.946;10.558;2023-11-19T07:26:58;13.60;99.90
3190;DHT22;1606;51.946;10.558;2023-11-19T07:29:26;13.50;99.90
3190;DHT22;1606;51.946;10.558;2023-11-19T07:31:56;13.70;99.90
3190;DHT22;1606;51.946;10.558;2023-11-19T07:34:25;13.60;99.90
3190;DHT22;1606;51.946;10.558;2023-11-19T07:36:53;13.60;99.90
3190;DHT22;1606;51.946;10.558;2023-11-19T07:39:24;13.40;99.90
3190;DHT22;1606;51.946;10.558;2023-11-19T07:41:52;13.40;99.90
3190;DHT22;1606;51.946;10.558;2023-11-19T07:44:20;13.40;99.90
3190;DHT22;1606;51.946;10.558;2023-11-19T07:46:49;13.30;99.90
3190;DHT22;1606;51.946;10.558;2023-11-19T07:49:17;13.30;99.90
3190;DHT22;1606;51.946;10.558;2023-11-19T07:51:46;13.40;99.90
3190;DHT22;1606;51.946;10.558;2023-11-19T07:54:14;13.60;99.90
3190;DHT22;1606;51.946;10.558;2023-11-19T07:56:42;13.60;99.90
3190;DHT22;1606;51.946;10.558;2023-11-19T07:59:11;13.50;99.90
3190;DHT22;1606;51.946;10.558;2023-11-19T08:01:39;13.60;99.90
3190;DHT22;1606;51.946;10.558;2023-11-19T08:04:07;13.40;99.90
3190;DHT22;1606;51.946;10.558;2023-11-19T08:06:35;13.30;99.90
3190;DHT22;1606;51.946;10.558;2023-11-19T08:09:05;13.50;99.90
3190;DHT22;1606;51.946;10.558;2023-11-19T08:11:33;13.60;99.90
3190;DHT22;1606;51.946;10.558;2023-11-19T08:14:02;13.80;99.90
3190;DHT22;1606;51.946;10.558;2023-11-19T08:16:30;13.50;99.90
3190;DHT22;1606;51.946;10.558;2023-11-19T08:18:58;13.80;99.90
3190;DHT22;1606;51.946;10.558;2023-11-19T08:21:26;13.60;99.90
3190;DHT22;1606;51.946;10.558;2023-11-19T08:23:54;13.60;99.90
3190;DHT22;1606;51.946;10.558;2023-11-19T08:26:23;13.70;99.90
3190;DHT22;1606;51.946;10.558;2023-11-19T08:28:51;13.80;99.90
3190;DHT22;1606;51.946;10.558;2023-11-19T08:31:20;14.00;99.90
3190;DHT22;1606;51.946;10.558;2023-11-19T08:33:48;14.10;99.90
3190;DHT22;1606;51.946;10.558;2023-11-19T08:36:16;14.30;99.90
3190;DHT22;1606;51.946;10.558;2023-11-19T08:38:45;14.00;99.90
3190;DHT22;1606;51.946;10.558;2023-11-19T08:41:13;14.10;99.90
3190;DHT22;1606;51.946;10.558;2023-11-19T08:43:43;14.20;99.90
3190;DHT22;1606;51.946;10.558;2023-11-19T08:46:13;14.30;99.90
3190;DHT22;1606;51.946;10.558;2023-11-19T08:48:41;14.10;99.90
3190;DHT22;1606;51.946;10.558;2023-11-19T08:51:10;14.10;99.90
3190;DHT22;1606;51.946;10.558;2023-11-19T08:53:38;14.10;99.90
3190;DHT22;1606;51.946;10.558;2023-11-19T08:56:07;14.20;99.90
3190;DHT22;1606;51.946;10.558;2023-11-19T08:58:35;14.00;99.90
3190;DHT22;1606;51.946;10.558;2023-11-19T09:01:05;13.90;99.90
3190;DHT22;1606;51.946;10.558;2023-11-19T09:03:33;14.00;99.90
3190;DHT22;1606;51.946;10.558;2023-11-19T09:06:01;13.80;99.90
3190;DHT22;1606;51.946;10.558;2023-11-19T09:08:29;13.80;99.90
3190;DHT22;1606;51.946;10.558;2023-11-19T09:10:57;13.70;99.90
3190;DHT22;1606;51.946;10.558;2023-11-19T09:13:26;13.80;99.90
3190;DHT22;1606;51.946;10.558;2023-11-19T09:15:55;13.80;99.90
3190;DHT22;1606;51.946;10.558;2023-11-19T09:18:27;13.80;99.90
3190;DHT22;1606;51.946;10.558;2023-11-19T09:20:55;14.00;99.90
3190;DHT22;1606;51.946;10.558;2023-11-19T09:23:24;14.00;99.90
3190;DHT22;1606;51.946;10.558;2023-11-19T09:25:57;14.00;99.90
3190;DHT22;1606;51.946;10.558;2023-11-19T09:28:25;14.30;99.90
3190;DHT22;1606;51.946;10.558;2023-11-19T09:30:53;14.50;99.90
3190;DHT22;1606;51.946;10.558;2023-11-19T09:33:21;14.40;99.90
3190;DHT22;1606;51.946;10.558;2023-11-19T09:35:51;14.00;99.90
3190;DHT22;1606;51.946;10.558;2023-11-19T09:38:19;14.10;99.90
3190;DHT22;1606;51.946;10.558;2023-11-19T09:40:51;14.10;99.90
3190;DHT22;1606;51.946;10.558;2023-11-19T09:43:19;14.30;99.90
3190;DHT22;1606;51.946;10.558;2023-11-19T09:45:49;14.30;99.90
3190;DHT22;1606;51.946;10.558;2023-11-19T09:48:20;14.30;99.90
3190;DHT22;1606;51.946;10.558;2023-11-19T09:50:52;14.20;99.90
3190;DHT22;1606;51.946;10.558;2023-11-19T09:53:20;14.10;99.90
3190;DHT22;1606;51.946;10.558;2023-11-19T09:55:50;14.10;99.90
3190;DHT22;1606;51.946;10.558;2023-11-19T09:58:18;14.10;99.90
3190;DHT22;1606;51.946;10.558;2023-11-19T10:00:47;14.20;99.90
3190;DHT22;1606;51.946;10.558;2023-11-19T10:03:36;14.30;99.90
3190;DHT22;1606;51.946;10.558;2023-11-19T10:06:09;14.40;99.90
3190;DHT22;1606;51.946;10.558;2023-11-19T10:08:38;14.60;99.90
3190;DHT22;1606;51.946;10.558;2023-11-19T10:11:07;14.60;99.90
3190;DHT22;1606;51.946;10.558;2023-11-19T10:13:37;14.60;99.90
3190;DHT22;1606;51.946;10.558;2023-11-19T10:16:08;14.80;99.90
3190;DHT22;1606;51.946;10.558;2023-11-19T10:18:42;14.70;99.90
3190;DHT22;1606;51.946;10.558;2023-11-19T10:21:13;14.50;99.90
3190;DHT22;1606;51.946;10.558;2023-11-19T10:23:50;14.60;99.90
3190;DHT22;1606;51.946;10.558;2023-11-19T10:26:20;14.50;99.90
3190;DHT22;1606;51.946;10.558;2023-11-19T10:28:49;14.60;99.90
3190;DHT22;1606;51.946;10.558;2023-11-19T10:31:19;14.50;99.90
3190;DHT22;1606;51.946;10.558;2023-11-19T10:33:51;14.60;99.90
3190;DHT22;1606;51.946;10.558;2023-11-19T10:36:21;14.70;99.90
3190;DHT22;1606;51.946;10.558;2023-11-19T10:38:55;14.80;99.90
3190;DHT22;1606;51.946;10.558;2023-11-19T10:41:27;15.10;99.90
3190;DHT22;1606;51.946;10.558;2023-11-19T10:43:56;15.10;99.90
3190;DHT22;1606;51.946;10.558;2023-11-19T10:46:36;15.20;99.90
3190;DHT22;1606;51.946;10.558;2023-11-19T10:49:04;15.40;99.90
3190;DHT22;1606;51.946;10.558;2023-11-19T10:51:34;15.30;99.90
3190;DHT22;1606;51.946;10.558;2023-11-19T10:54:05;15.10;99.90
3190;DHT22;1606;51.946;10.558;2023-11-19T10:56:34;15.10;99.90
3190;DHT22;1606;51.946;10.558;2023-11-19T10:59:02;15.00;99.90
3190;DHT22;1606;51.946;10.558;2023-11-19T11:01:53;15.00;99.90
3190;DHT22;1606;51.946;10.558;2023-11-19T11:04:23;15.10;99.90
3190;DHT22;1606;51.946;10.558;2023-11-19T11:06:58;15.00;99.90
3190;DHT22;1606;51.946;10.558;2023-11-19T11:09:27;15.00;99.90
3190;DHT22;1606;51.946;10.558;2023-11-19T11:11:55;14.90;99.90
3190;DHT22;1606;51.946;10.558;2023-11-19T11:14:27;14.80;99.90
3190;DHT22;1606;51.946;10.558;2023-11-19T11:16:56;14.90;99.90
3190;DHT22;1606;51.946;10.558;2023-11-19T11:19:25;14.80;99.90
3190;DHT22;1606;51.946;10.558;2023-11-19T11:21:58;14.90;99.90
3190;DHT22;1606;51.946;10.558;2023-11-19T11:27:37;15.10;99.90
3190;DHT22;1606;51.946;10.558;2023-11-19T11:30:17;15.30;99.90
3190;DHT22;1606;51.946;10.558;2023-11-19T11:32:54;15.50;99.90
3190;DHT22;1606;51.946;10.558;2023-11-19T11:35:34;15.60;99.90
3190;DHT22;1606;51.946;10.558;2023-11-19T11:38:08;15.50;99.90
3190;DHT22;1606;51.946;10.558;2023-11-19T11:40:36;15.30;99.90
3190;DHT22;1606;51.946;10.558;2023-11-19T11:43:43;15.10;99.90
3190;DHT22;1606;51.946;10.558;2023-11-19T11:49:13;14.90;99.90
3190;DHT22;1606;51.946;10.558;2023-11-19T11:52:01;15.30;99.90
3190;DHT22;1606;51.946;10.558;2023-11-19T11:54:35;15.30;99.90
3190;DHT22;1606;51.946;10.558;2023-11-19T11:57:11;15.30;99.90
3190;DHT22;1606;51.946;10.558;2023-11-19T11:59:48;15.60;99.90
3190;DHT22;1606;51.946;10.558;2023-11-19T12:02:18;15.60;99.90
3190;DHT22;1606;51.946;10.558;2023-11-19T12:04:49;15.40;99.90
3190;DHT22;1606;51.946;10.558;2023-11-19T12:07:21;15.20;99.90
3190;DHT22;1606;51.946;10.558;2023-11-19T12:09:53;15.10;99.90
3190;DHT22;1606;51.946;10.558;2023-11-19T12:12:25;15.10;99.90
3190;DHT22;1606;51.946;10.558;2023-11-19T12:15:05;15.30;99.90
3190;DHT22;1606;51.946;10.558;2023-11-19T12:17:46;15.10;99.90
3190;DHT22;1606;51.946;10.558;2023-11-19T12:20:19;15.10;99.90
3190;DHT22;1606;51.946;10.558;2023-11-19T12:22:51;15.10;99.90
3190;DHT22;1606;51.946;10.558;2023-11-19T12:25:21;14.90;99.90
3190;DHT22;1606;51.946;10.558;2023-11-19T12:27:50;14.90;99.90
3190;DHT22;1606;51.946;10.558;2023-11-19T12:30:21;15.00;99.90
3190;DHT22;1606;51.946;10.558;2023-11-19T12:32:50;15.10;99.90
3190;DHT22;1606;51.946;10.558;2023-11-19T12:35:20;15.10;99.90
3190;DHT22;1606;51.946;10.558;2023-11-19T12:37:49;15.20;99.90
3190;DHT22;1606;51.946;10.558;2023-11-19T12:40:21;15.40;99.90
3190;DHT22;1606;51.946;10.558;2023-11-19T12:42:50;15.40;99.90
3190;DHT22;1606;51.946;10.558;2023-11-19T12:45:19;15.30;99.90
3190;DHT22;1606;51.946;10.558;2023-11-19T12:47:48;15.40;99.90
3190;DHT22;1606;51.946;10.558;2023-11-19T12:50:19;15.30;99.90
3190;DHT22;1606;51.946;10.558;2023-11-19T12:52:55;15.20;99.90
3190;DHT22;1606;51.946;10.558;2023-11-19T12:55:26;15.30;99.90
3190;DHT22;1606;51.946;10.558;2023-11-19T12:57:56;15.40;99.90
3190;DHT22;1606;51.946;10.558;2023-11-19T13:00:27;15.40;99.90
3190;DHT22;1606;51.946;10.558;2023-11-19T13:02:57;15.10;99.90
3190;DHT22;1606;51.946;10.558;2023-11-19T13:05:28;15.10;99.90
3190;DHT22;1606;51.946;10.558;2023-11-19T13:07:59;15.20;99.90
3190;DHT22;1606;51.946;10.558;2023-11-19T13:10:29;15.10;99.90
3190;DHT22;1606;51.946;10.558;2023-11-19T13:13:04;15.00;99.90
3190;DHT22;1606;51.946;10.558;2023-11-19T13:15:33;14.90;99.90
3190;DHT22;1606;51.946;10.558;2023-11-19T13:18:02;15.00;99.90
3190;DHT22;1606;51.946;10.558;2023-11-19T13:20:30;14.90;99.90
3190;DHT22;1606;51.946;10.558;2023-11-19T13:22:59;15.00;99.90
3190;DHT22;1606;51.946;10.558;2023-11-19T13:25:30;15.10;99.90
3190;DHT22;1606;51.946;10.558;2023-11-19T13:27:59;14.80;99.90
3190;DHT22;1606;51.946;10.558;2023-11-19T13:30:27;15.00;99.90
3190;DHT22;1606;51.946;10.558;2023-11-19T13:32:55;15.00;99.90
3190;DHT22;1606;51.946;10.558;2023-11-19T13:35:26;15.10;99.90
3190;DHT22;1606;51.946;10.558;2023-11-19T13:37:57;15.10;99.90
3190;DHT22;1606;51.946;10.558;2023-11-19T13:40:25;14.80;99.90
3190;DHT22;1606;51.946;10.558;2023-11-19T13:42:55;14.90;99.90
3190;DHT22;1606;51.946;10.558;2023-11-19T13:45:23;14.50;99.90
3190;DHT22;1606;51.946;10.558;2023-11-19T13:47:51;14.60;99.90
3190;DHT22;1606;51.946;10.558;2023-11-19T13:50:19;14.60;99.90
3190;DHT22;1606;51.946;10.558;2023-11-19T13:52:49;14.40;99.90
3190;DHT22;1606;51.946;10.558;2023-11-19T13:55:17;14.60;99.90
3190;DHT22;1606;51.946;10.558;2023-11-19T13:57:46;14.60;99.90
3190;DHT22;1606;51.946;10.558;2023-11-19T14:00:19;14.70;99.90
3190;DHT22;1606;51.946;10.558;2023-11-19T14:02:49;14.80;99.90
3190;DHT22;1606;51.946;10.558;2023-11-19T14:05:19;15.00;99.90
3190;DHT22;1606;51.946;10.558;2023-11-19T14:07:50;15.00;99.90
3190;DHT22;1606;51.946;10.558;2023-11-19T14:10:18;15.00;99.90
3190;DHT22;1606;51.946;10.558;2023-11-19T14:12:49;14.80;99.90
3190;DHT22;1606;51.946;10.558;2023-11-19T14:15:19;15.00;99.90
3190;DHT22;1606;51.946;10.558;2023-11-19T14:17:47;14.70;99.90
3190;DHT22;1606;51.946;10.558;2023-11-19T14:20:15;14.60;99.90
3190;DHT22;1606;51.946;10.558;2023-11-19T14:22:44;14.50;99.90
3190;DHT22;1606;51.946;10.558;2023-11-19T14:25:15;14.60;99.90
3190;DHT22;1606;51.946;10.558;2023-11-19T14:27:44;14.30;99.90
3190;DHT22;1606;51.946;10.558;2023-11-19T14:30:13;14.10;99.90
3190;DHT22;1606;51.946;10.558;2023-11-19T14:32:44;14.20;99.90
3190;DHT22;1606;51.946;10.558;2023-11-19T14:35:13;14.30;99.90
3190;DHT22;1606;51.946;10.558;2023-11-19T14:37:41;14.40;99.90
3190;DHT22;1606;51.946;10.558;2023-11-19T14:40:10;14.40;99.90
3190;DHT22;1606;51.946;10.558;2023-11-19T14:42:38;14.20;99.90
3190;DHT22;1606;51.946;10.558;2023-11-19T14:45:08;14.20;99.90
3190;DHT22;1606;51.946;10.558;2023-11-19T14:47:39;14.30;99.90
3190;DHT22;1606;51.946;10.558;2023-11-19T14:50:08;14.30;99.90
3190;DHT22;1606;51.946;10.558;2023-11-19T14:52:37;14.00;99.90
3190;DHT22;1606;51.946;10.558;2023-11-19T14:55:05;14.00;99.90
3190;DHT22;1606;51.946;10.558;2023-11-19T14:57:34;14.00;99.90
3190;DHT22;1606;51.946;10.558;2023-11-19T15:00:03;14.00;99.90
3190;DHT22;1606;51.946;10.558;2023-11-19T15:02:40;13.80;99.90
3190;DHT22;1606;51.946;10.558;2023-11-19T15:05:10;13.80;99.90
3190;DHT22;1606;51.946;10.558;2023-11-19T15:07:38;13.80;99.90
3190;DHT22;1606;51.946;10.558;2023-11-19T15:10:07;13.90;99.90
3190;DHT22;1606;51.946;10.558;2023-11-19T15:12:37;13.90;99.90
3190;DHT22;1606;51.946;10.558;2023-11-19T15:15:07;14.00;99.90
3190;DHT22;1606;51.946;10.558;2023-11-19T15:17:39;13.80;99.90
3190;DHT22;1606;51.946;10.558;2023-11-19T15:20:08;13.80;99.90
3190;DHT22;1606;51.946;10.558;2023-11-19T15:22:38;13.80;99.90
3190;DHT22;1606;51.946;10.558;2023-11-19T15:25:06;13.80;99.90
3190;DHT22;1606;51.946;10.558;2023-11-19T15:27:37;13.80;99.90
3190;DHT22;1606;51.946;10.558;2023-11-19T15:30:06;13.70;99.90
3190;DHT22;1606;51.946;10.558;2023-11-19T15:32:37;13.60;99.90
3190;DHT22;1606;51.946;10.558;2023-11-19T15:35:06;13.70;99.90
3190;DHT22;1606;51.946;10.558;2023-11-19T15:37:38;13.80;99.90
3190;DHT22;1606;51.946;10.558;2023-11-19T15:40:08;13.60;99.90
3190;DHT22;1606;51.946;10.558;2023-11-19T15:42:39;13.70;99.90
3190;DHT22;1606;51.946;10.558;2023-11-19T15:45:07;13.80;99.90
3190;DHT22;1606;51.946;10.558;2023-11-19T15:47:36;13.70;99.90
3190;DHT22;1606;51.946;10.558;2023-11-19T15:50:05;13.80;99.90
3190;DHT22;1606;51.946;10.558;2023-11-19T15:52:38;14.00;99.90
3190;DHT22;1606;51.946;10.558;2023-11-19T15:55:06;14.00;99.90
3190;DHT22;1606;51.946;10.558;2023-11-19T15:57:34;13.80;99.90
3190;DHT22;1606;51.946;10.558;2023-11-19T16:00:03;13.70;99.90
3190;DHT22;1606;51.946;10.558;2023-11-19T16:02:32;13.80;99.90
3190;DHT22;1606;51.946;10.558;2023-11-19T16:05:01;13.90;99.90
3190;DHT22;1606;51.946;10.558;2023-11-19T16:07:31;13.80;99.90